sensor_id;sensor_type;location;lat;lon;timestamp;pressure;altitude;pressure_sealevel;temperature;humidity
73105;BME280;61296;50.526;30.792;2024-02-28T05:33:18;100496.34;;;0.36;100.00
73105;BME280;61296;50.526;30.792;2024-02-28T09:28:32;100403.06;;;4.04;73.37
73105;BME280;61296;50.526;30.792;2024-02-28T09:45:01;100530.50;;;4.91;71.01
73105;BME280;61296;50.526;30.792;2024-02-28T10:12:02;100490.47;;;5.09;66.95
73105;BME280;61296;50.526;30.792;2024-02-28T10:27:35;100451.72;;;4.81;66.99
73105;BME280;61296;50.526;30.792;2024-02-28T10:43:10;100465.78;;;5.14;67.13
73105;BME280;61296;50.526;30.792;2024-02-28T10:58:51;100498.03;;;5.87;66.04
73105;BME280;61296;50.526;30.792;2024-02-28T11:14:25;100474.13;;;6.27;63.87
73105;BME280;61296;50.526;30.792;2024-02-28T11:29:59;100425.28;;;6.25;62.51
73105;BME280;61296;50.526;30.792;2024-02-28T11:45:39;100346.44;;;6.06;60.54
73105;BME280;61296;50.526;30.792;2024-02-28T12:01:11;100432.03;;;6.75;59.38
73105;BME280;61296;50.526;30.792;2024-02-28T12:16:44;100417.63;;;6.95;60.60
73105;BME280;61296;50.526;30.792;2024-02-28T12:32:19;100395.84;;;6.78;60.10
73105;BME280;61296;50.526;30.792;2024-02-28T12:47:51;100418.53;;;7.08;60.45
73105;BME280;61296;50.526;30.792;2024-02-28T13:03:27;100375.91;;;7.28;58.93
73105;BME280;61296;50.526;30.792;2024-02-28T13:19:00;100353.28;;;7.60;59.00
73105;BME280;61296;50.526;30.792;2024-02-28T13:34:32;100364.28;;;7.93;58.30
73105;BME280;61296;50.526;30.792;2024-02-28T13:50:05;100314.22;;;7.72;57.61
73105;BME280;61296;50.526;30.792;2024-02-28T14:05:39;100314.50;;;7.58;62.44
73105;BME280;61296;50.526;30.792;2024-02-28T14:21:12;100364.66;;;8.04;59.94
73105;BME280;61296;50.526;30.792;2024-02-28T14:36:44;100367.06;;;8.05;57.89
73105;BME280;61296;50.526;30.792;2024-02-28T14:52:17;100344.09;;;7.44;65.50
73105;BME280;61296;50.526;30.792;2024-02-28T15:07:50;100370.59;;;7.10;67.99
73105;BME280;61296;50.526;30.792;2024-02-28T15:23:23;100366.28;;;6.71;68.84
73105;BME280;61296;50.526;30.792;2024-02-28T15:38:57;100358.72;;;6.39;70.28
73105;BME280;61296;50.526;30.792;2024-02-28T15:54:30;100309.38;;;5.71;72.10
73105;BME280;61296;50.526;30.792;2024-02-28T16:10:02;100359.28;;;5.71;73.01
73105;BME280;61296;50.526;30.792;2024-02-28T16:25:36;100288.53;;;4.97;73.61
73105;BME280;61296;50.526;30.792;2024-02-28T16:41:08;100377.91;;;5.26;74.70
73105;BME280;61296;50.526;30.792;2024-02-28T16:56:41;100342.53;;;4.78;75.94
73105;BME280;61296;50.526;30.792;2024-02-28T17:12:15;100342.63;;;4.55;77.67
73105;BME280;61296;50.526;30.792;2024-02-28T17:27:48;100340.72;;;4.25;79.17
73105;BME280;61296;50.526;30.792;2024-02-28T17:43:21;100344.50;;;4.07;80.03
73105;BME280;61296;50.526;30.792;2024-02-28T17:58:54;100348.94;;;4.02;81.06
73105;BME280;61296;50.526;30.792;2024-02-28T18:14:30;100338.28;;;3.61;82.19
73105;BME280;61296;50.526;30.792;2024-02-28T18:30:03;100375.06;;;3.59;84.14
73105;BME280;61296;50.526;30.792;2024-02-28T18:45:36;100339.94;;;3.12;86.08
73105;BME280;61296;50.526;30.792;2024-02-28T19:01:09;100372.19;;;3.05;87.70
73105;BME280;61296;50.526;30.792;2024-02-28T19:16:43;100378.53;;;2.87;89.25
73105;BME280;61296;50.526;30.792;2024-02-28T19:32:16;100360.34;;;2.60;89.80
73105;BME280;61296;50.526;30.792;2024-02-28T19:47:49;100340.22;;;2.47;90.04
73105;BME280;61296;50.526;30.792;2024-02-28T20:03:22;100354.00;;;2.37;91.04
73105;BME280;61296;50.526;30.792;2024-02-28T20:18:55;100357.13;;;2.30;91.33
73105;BME280;61296;50.526;30.792;2024-02-28T20:34:29;100351.47;;;2.27;91.01
73105;BME280;61296;50.526;30.792;2024-02-28T20:50:02;100336.78;;;2.14;91.13
73105;BME280;61296;50.526;30.792;2024-02-28T21:05:36;100355.09;;;2.09;91.84
73105;BME280;61296;50.526;30.792;2024-02-28T21:21:10;100357.88;;;2.03;91.15
73105;BME280;61296;50.526;30.792;2024-02-28T21:36:42;100347.13;;;1.98;90.68
73105;BME280;61296;50.526;30.792;2024-02-28T21:52:15;100334.00;;;1.87;90.19
73105;BME280;61296;50.526;30.792;2024-02-28T22:07:48;100355.34;;;1.93;89.64
73105;BME280;61296;50.526;30.792;2024-02-28T22:23:21;100372.25;;;2.04;89.56
73105;BME280;61296;50.526;30.792;2024-02-28T22:38:54;100367.25;;;1.79;89.31
73105;BME280;61296;50.526;30.792;2024-02-28T22:54:27;100326.19;;;1.53;89.86
73105;BME280;61296;50.526;30.792;2024-02-28T23:10:00;100360.00;;;1.74;89.10
73105;BME280;61296;50.526;30.792;2024-02-28T23:25:32;100372.69;;;1.79;89.28
73105;BME280;61296;50.526;30.792;2024-02-28T23:41:06;100253.09;;;1.15;88.48
73105;BME280;61296;50.526;30.792;2024-02-28T23:56:40;100339.59;;;1.77;87.13
